Time;durP1;ratioP1;P1;durP2;ratioP2;P2;SDS_P1;SDS_P2;PMS_P1;PMS_P2;Temp;Humidity;BMP_temperature;BMP_pressure;BME280_temperature;BME280_humidity;BME280_pressure;Samples;Min_cycle;Max_cycle;Signal;HPM_P1;HPM_P2
2022/04/08 00:01:15;;;;;;;8.90;3.30;;;7.60;99.90;;;;;;4956878;29;20203;-83
2022/04/08 00:03:42;;;;;;;12.20;3.10;;;7.40;99.90;;;;;;4939802;28;20399;-83
2022/04/08 00:06:09;;;;;;;9.17;2.90;;;7.50;99.90;;;;;;4963476;28;20214;-83
2022/04/08 00:08:36;;;;;;;7.27;2.80;;;7.40;99.90;;;;;;4956900;28;20211;-83
2022/04/08 00:11:03;;;;;;;8.00;3.20;;;7.40;99.90;;;;;;4956252;29;20200;-82
2022/04/08 00:13:30;;;;;;;9.20;3.17;;;;;;;;;;4939129;29;20231;-83
2022/04/08 00:15:57;;;;;;;10.73;3.60;;;7.50;99.90;;;;;;4961583;29;20547;-83
2022/04/08 00:18:25;;;;;;;10.53;3.30;;;7.60;99.90;;;;;;4962636;29;20208;-83
2022/04/08 00:20:52;;;;;;;8.87;3.23;;;7.60;99.90;;;;;;4950945;28;20315;-83
2022/04/08 00:23:20;;;;;;;9.00;2.47;;;7.60;99.90;;;;;;4955474;29;20236;-83
2022/04/08 00:25:48;;;;;;;5.27;2.50;;;7.60;99.90;;;;;;4955452;28;20579;-83
2022/04/08 00:28:14;;;;;;;7.10;3.20;;;7.60;99.90;;;;;;4955444;29;20217;-84
2022/04/08 00:30:42;;;;;;;10.30;2.87;;;7.60;99.90;;;;;;4956139;29;20285;-83
2022/04/08 00:33:08;;;;;;;13.37;3.67;;;7.60;99.90;;;;;;4949235;28;20210;-83
2022/04/08 00:35:37;;;;;;;9.37;2.97;;;7.50;99.90;;;;;;4956174;28;20227;-83
2022/04/08 00:38:04;;;;;;;10.20;3.03;;;7.50;99.90;;;;;;4957666;28;20215;-83
2022/04/08 00:40:30;;;;;;;9.10;3.50;;;7.50;99.90;;;;;;4938806;29;20219;-83
2022/04/08 00:42:57;;;;;;;6.37;2.73;;;7.50;99.90;;;;;;4940031;29;20210;-82
2022/04/08 00:45:24;;;;;;;8.93;3.27;;;7.50;99.90;;;;;;4957860;28;20230;-83
2022/04/08 00:47:51;;;;;;;8.77;2.80;;;7.40;99.90;;;;;;4958612;29;20201;-83
2022/04/08 00:50:19;;;;;;;17.50;3.10;;;7.40;99.90;;;;;;4959782;29;20200;-83
2022/04/08 00:52:47;;;;;;;9.43;3.00;;;7.40;99.90;;;;;;4960553;29;20208;-83
2022/04/08 00:55:14;;;;;;;8.93;2.70;;;7.50;99.90;;;;;;4961097;28;20231;-83
2022/04/08 00:57:42;;;;;;;7.90;3.03;;;7.40;99.90;;;;;;4939453;29;20240;-83
2022/04/08 01:00:11;;;;;;;16.73;3.80;;;7.40;99.90;;;;;;4936541;29;22165;-84
2022/04/08 01:02:39;;;;;;;12.07;3.00;;;7.40;99.90;;;;;;4955147;29;20226;-83
2022/04/08 01:05:09;;;;;;;16.40;3.67;;;7.40;99.90;;;;;;4959618;29;20232;-83
2022/04/08 01:07:36;;;;;;;11.97;3.47;;;7.20;99.90;;;;;;4959461;29;20208;-83
2022/04/08 01:10:06;;;;;;;9.57;3.57;;;7.20;99.90;;;;;;4963999;29;20200;-84
2022/04/08 01:12:32;;;;;;;9.13;3.33;;;7.10;99.90;;;;;;4962446;29;20247;-84
2022/04/08 01:15:01;;;;;;;10.70;3.30;;;7.10;99.90;;;;;;4966584;28;20239;-84
2022/04/08 01:17:28;;;;;;;11.50;3.80;;;7.20;99.90;;;;;;4958238;29;20213;-83
2022/04/08 01:19:55;;;;;;;14.00;3.90;;;7.20;99.90;;;;;;4959053;29;20196;-84
2022/04/08 01:22:22;;;;;;;10.80;3.20;;;7.20;99.90;;;;;;4961424;29;20207;-83
2022/04/08 01:24:50;;;;;;;6.77;2.83;;;7.30;99.90;;;;;;4964291;28;20239;-84
2022/04/08 01:27:20;;;;;;;13.87;3.40;;;7.30;99.90;;;;;;4966051;28;20514;-82
2022/04/08 01:29:48;;;;;;;11.13;3.20;;;7.30;99.90;;;;;;4959127;29;20240;-82
2022/04/08 01:32:15;;;;;;;10.47;3.87;;;7.30;99.90;;;;;;4957884;28;20246;-82
2022/04/08 01:34:43;;;;;;;9.60;3.43;;;7.30;99.90;;;;;;4958279;28;20238;-83
2022/04/08 01:37:10;;;;;;;11.70;3.60;;;7.40;99.90;;;;;;4961465;29;20207;-83
2022/04/08 01:39:37;;;;;;;10.17;3.60;;;7.30;99.90;;;;;;4960440;29;20623;-82
2022/04/08 01:42:05;;;;;;;13.33;3.23;;;7.40;99.90;;;;;;4960515;29;20216;-83
2022/04/08 01:44:33;;;;;;;12.00;3.83;;;7.40;99.90;;;;;;4980313;28;20237;-83
2022/04/08 01:47:00;;;;;;;15.03;3.60;;;7.40;99.90;;;;;;5004398;28;20202;-82
2022/04/08 01:49:27;;;;;;;15.67;3.43;;;7.50;99.90;;;;;;5003861;28;20229;-83
2022/04/08 01:51:54;;;;;;;12.33;3.43;;;7.40;99.90;;;;;;5013196;28;20206;-83
2022/04/08 01:54:21;;;;;;;11.70;3.30;;;7.30;99.90;;;;;;5000167;28;20238;-84
2022/04/08 01:56:49;;;;;;;14.10;3.77;;;7.20;99.90;;;;;;4983531;28;20211;-83
2022/04/08 01:59:15;;;;;;;9.00;3.10;;;7.10;99.90;;;;;;5008919;28;20761;-83
2022/04/08 02:01:44;;;;;;;12.73;3.50;;;7.10;99.90;;;;;;4981595;28;20211;-83
2022/04/08 02:04:11;;;;;;;20.60;4.60;;;7.00;99.90;;;;;;5000332;28;20222;-83
2022/04/08 02:06:40;;;;;;;16.30;3.67;;;7.00;99.90;;;;;;4983758;28;20224;-84
2022/04/08 02:09:08;;;;;;;10.43;3.17;;;6.90;99.90;;;;;;5007961;28;20222;-84
2022/04/08 02:11:36;;;;;;;13.80;4.03;;;7.10;99.90;;;;;;5002074;28;20203;-83
2022/04/08 02:14:03;;;;;;;10.13;3.50;;;6.90;99.90;;;;;;5002236;28;20241;-83
2022/04/08 02:16:30;;;;;;;11.03;3.53;;;6.90;99.90;;;;;;4983488;28;20203;-83
2022/04/08 02:18:59;;;;;;;14.40;3.70;;;6.80;99.90;;;;;;4982889;28;20343;-83
2022/04/08 02:21:26;;;;;;;10.70;3.87;;;6.80;99.90;;;;;;4981592;28;20200;-82
2022/04/08 02:23:53;;;;;;;9.70;3.23;;;6.80;99.90;;;;;;4991982;28;20261;-82
2022/04/08 02:26:21;;;;;;;12.33;4.13;;;6.80;99.90;;;;;;4984960;28;20214;-83
2022/04/08 02:28:48;;;;;;;23.77;4.03;;;6.90;99.90;;;;;;5008009;28;20248;-84
2022/04/08 02:31:15;;;;;;;14.43;3.60;;;6.80;99.90;;;;;;5004153;28;20184;-83
2022/04/08 02:33:42;;;;;;;16.07;4.57;;;6.80;99.90;;;;;;5002343;28;20206;-83
2022/04/08 02:36:10;;;;;;;13.37;4.47;;;6.80;99.90;;;;;;4983852;28;20238;-82
2022/04/08 02:38:37;;;;;;;12.23;3.73;;;6.70;99.90;;;;;;4983067;28;20207;-83
2022/04/08 02:41:04;;;;;;;14.20;4.10;;;6.60;99.90;;;;;;5001867;28;20192;-84
2022/04/08 02:43:31;;;;;;;11.97;3.73;;;6.60;99.90;;;;;;4984361;28;20240;-82
2022/04/08 02:45:57;;;;;;;10.73;3.27;;;6.60;99.90;;;;;;5004729;28;20222;-83
2022/04/08 02:48:24;;;;;;;19.23;4.93;;;6.60;99.90;;;;;;5004677;28;20204;-84
2022/04/08 02:50:51;;;;;;;10.67;3.80;;;6.60;99.90;;;;;;5005099;28;20195;-84
2022/04/08 02:53:19;;;;;;;14.43;4.50;;;6.90;99.90;;;;;;5007582;28;20209;-84
2022/04/08 02:55:46;;;;;;;17.57;4.23;;;6.60;99.90;;;;;;5008898;28;20223;-84
2022/04/08 02:58:13;;;;;;;13.77;3.93;;;6.60;99.90;;;;;;5009744;28;20222;-83
2022/04/08 03:00:40;;;;;;;14.23;4.17;;;6.60;99.90;;;;;;4994382;28;20188;-84
2022/04/08 03:03:07;;;;;;;14.47;3.57;;;8.10;99.90;;;;;;4993378;28;20191;-84
2022/04/08 03:05:34;;;;;;;11.87;3.67;;;6.60;99.90;;;;;;5018682;28;20256;-84
2022/04/08 03:08:01;;;;;;;13.27;4.20;;;6.60;99.90;;;;;;5034640;28;20439;-83
2022/04/08 03:10:29;;;;;;;11.40;3.40;;;6.70;99.90;;;;;;5016634;28;20211;-84
2022/04/08 03:12:56;;;;;;;13.43;3.23;;;6.70;99.90;;;;;;5033707;28;20272;-82
2022/04/08 03:15:23;;;;;;;12.80;3.53;;;6.70;99.90;;;;;;5016654;28;20226;-83
2022/04/08 03:17:51;;;;;;;9.30;3.33;;;6.60;99.90;;;;;;5020954;28;20195;-82
2022/04/08 03:20:18;;;;;;;11.70;3.23;;;6.60;99.90;;;;;;5032260;28;20184;-83
2022/04/08 03:22:45;;;;;;;7.73;3.53;;;6.40;99.90;;;;;;4997876;28;20225;-83
2022/04/08 03:25:12;;;;;;;10.77;2.40;;;6.30;99.90;;;;;;5015267;28;20243;-83
2022/04/08 03:27:40;;;;;;;11.33;2.60;;;6.10;99.90;;;;;;5015069;28;20197;-83
2022/04/08 03:30:08;;;;;;;12.20;3.03;;;6.00;99.90;;;;;;5014710;28;20221;-84
2022/04/08 03:32:35;;;;;;;8.50;2.60;;;6.00;99.90;;;;;;5014667;28;20192;-83
2022/04/08 03:35:03;;;;;;;8.67;2.70;;;6.00;99.90;;;;;;5015310;28;20231;-83
2022/04/08 03:37:31;;;;;;;8.70;3.33;;;6.00;99.90;;;;;;5014907;28;20197;-84
2022/04/08 03:39:58;;;;;;;9.83;3.27;;;5.90;99.90;;;;;;5014880;28;20184;-84
2022/04/08 03:42:26;;;;;;;11.37;3.20;;;5.80;99.90;;;;;;5015188;28;20205;-84
2022/04/08 03:44:54;;;;;;;9.80;3.27;;;5.80;99.90;;;;;;5014946;28;20251;-84
2022/04/08 03:47:22;;;;;;;13.03;4.13;;;5.70;99.90;;;;;;5008475;28;20273;-83
2022/04/08 03:49:49;;;;;;;10.93;3.90;;;5.70;99.90;;;;;;4979430;28;20645;-83
2022/04/08 03:52:16;;;;;;;14.67;4.17;;;5.70;99.90;;;;;;4977972;28;20228;-84
2022/04/08 03:54:43;;;;;;;17.53;4.60;;;5.70;99.90;;;;;;4976273;28;20239;-84
2022/04/08 03:57:10;;;;;;;10.40;3.53;;;5.80;99.90;;;;;;4975626;28;20260;-85
2022/04/08 03:59:38;;;;;;;9.67;3.57;;;5.80;99.90;;;;;;4987101;28;20211;-83
2022/04/08 04:02:07;;;;;;;11.07;3.77;;;5.90;99.90;;;;;;4975317;28;20289;-83
2022/04/08 04:04:35;;;;;;;10.23;3.33;;;6.00;99.90;;;;;;4979099;28;20858;-83
2022/04/08 04:07:02;;;;;;;12.03;3.73;;;6.10;99.90;;;;;;4978854;28;20214;-84
2022/04/08 04:09:29;;;;;;;15.00;3.90;;;6.10;99.90;;;;;;4982608;28;20213;-82
2022/04/08 04:11:56;;;;;;;9.97;3.63;;;6.20;99.90;;;;;;4996796;28;20199;-82
2022/04/08 04:14:22;;;;;;;14.00;3.67;;;6.20;99.90;;;;;;4977743;28;20232;-83
2022/04/08 04:16:49;;;;;;;14.07;3.87;;;6.20;99.90;;;;;;4978973;28;20547;-83
2022/04/08 04:19:18;;;;;;;16.10;4.33;;;6.20;99.90;;;;;;4997866;28;20259;-83
2022/04/08 04:21:47;;;;;;;17.23;4.57;;;6.20;99.90;;;;;;4978368;28;20211;-82
2022/04/08 04:24:15;;;;;;;9.87;3.07;;;6.20;99.90;;;;;;4984467;28;20510;-82
2022/04/08 04:26:42;;;;;;;9.63;3.10;;;6.20;99.90;;;;;;4987129;28;20215;-83
2022/04/08 04:29:11;;;;;;;12.23;2.97;;;6.20;99.90;;;;;;4999034;28;20280;-83
2022/04/08 04:31:38;;;;;;;8.00;2.77;;;6.10;99.90;;;;;;4996168;28;20271;-83
2022/04/08 04:34:04;;;;;;;9.83;2.20;;;6.00;99.90;;;;;;4996615;28;20262;-81
2022/04/08 04:36:33;;;;;;;8.00;2.93;;;5.90;99.90;;;;;;4999715;28;20226;-86
2022/04/08 04:39:00;;;;;;;10.80;2.80;;;5.80;99.90;;;;;;4984936;28;20209;-87
2022/04/08 04:41:27;;;;;;;6.73;2.77;;;5.80;99.90;;;;;;5000521;28;20206;-86
2022/04/08 04:43:53;;;;;;;14.80;3.90;;;5.70;99.90;;;;;;4995576;28;20223;-87
2022/04/08 04:46:21;;;;;;;17.40;3.83;;;5.70;99.90;;;;;;4996161;28;20211;-86
2022/04/08 04:48:48;;;;;;;12.77;3.53;;;5.60;99.90;;;;;;4979277;28;20681;-87
2022/04/08 04:51:16;;;;;;;14.13;4.40;;;5.60;99.90;;;;;;4996797;28;20184;-87
2022/04/08 04:53:44;;;;;;;20.33;5.50;;;5.40;99.90;;;;;;4998442;28;20204;-87
2022/04/08 04:56:12;;;;;;;13.97;5.20;;;5.40;99.90;;;;;;4984905;28;20223;-87
2022/04/08 04:58:39;;;;;;;14.27;4.60;;;5.30;99.90;;;;;;4982884;28;20216;-88
2022/04/08 05:01:06;;;;;;;17.73;5.57;;;5.30;99.90;;;;;;4979997;28;20280;-86
2022/04/08 05:03:33;;;;;;;15.63;4.70;;;5.30;99.90;;;;;;4981280;28;20202;-87
2022/04/08 05:06:00;;;;;;;11.07;4.97;;;5.30;99.90;;;;;;4989798;28;20218;-87
2022/04/08 05:08:28;;;;;;;12.00;5.40;;;5.30;99.90;;;;;;4972751;28;20215;-89
2022/04/08 05:10:58;;;;;;;17.40;5.53;;;;;;;;;;4973884;28;20196;-87
2022/04/08 05:13:25;;;;;;;13.57;5.43;;;5.30;99.90;;;;;;4988451;28;20216;-88
2022/04/08 05:15:52;;;;;;;17.07;6.03;;;5.40;99.90;;;;;;5004090;28;20282;-88
2022/04/08 05:18:19;;;;;;;18.37;5.47;;;5.30;99.90;;;;;;4986318;28;20251;-88
2022/04/08 05:20:49;;;;;;;13.93;5.70;;;5.40;99.90;;;;;;4984854;28;20218;-87
2022/04/08 05:23:16;;;;;;;13.20;6.37;;;5.40;99.90;;;;;;5002518;28;20224;-88
2022/04/08 05:25:43;;;;;;;12.57;5.57;;;6.60;99.90;;;;;;4983994;28;20228;-87
2022/04/08 05:28:12;;;;;;;23.50;6.47;;;5.50;99.90;;;;;;4984573;28;20226;-87
2022/04/08 05:30:46;;;;;;;20.43;6.87;;;5.50;99.90;;;;;;4989857;28;20307;-88
2022/04/08 05:33:13;;;;;;;17.83;5.83;;;5.70;99.90;;;;;;4993773;28;20230;-84
2022/04/08 05:35:40;;;;;;;13.13;5.10;;;5.70;99.90;;;;;;5017249;28;20241;-84
2022/04/08 05:38:07;;;;;;;18.00;6.73;;;5.80;99.90;;;;;;4996930;28;20200;-85
2022/04/08 05:40:34;;;;;;;14.83;5.43;;;6.10;99.90;;;;;;4987777;28;20229;-85
2022/04/08 05:43:01;;;;;;;12.63;5.70;;;6.50;99.90;;;;;;5002562;28;20202;-85
2022/04/08 05:45:29;;;;;;;11.90;4.90;;;7.20;99.90;;;;;;4973032;28;20266;-85
2022/04/08 05:47:58;;;;;;;10.20;5.17;;;8.00;99.90;;;;;;4968387;28;20230;-85
2022/04/08 05:50:24;;;;;;;11.43;4.53;;;8.40;99.90;;;;;;4975781;28;20214;-85
2022/04/08 05:52:52;;;;;;;11.43;5.10;;;9.00;99.90;;;;;;4983930;28;20207;-85
2022/04/08 05:55:19;;;;;;;9.87;5.27;;;9.80;99.90;;;;;;4984213;28;20258;-85
2022/04/08 05:57:47;;;;;;;10.27;4.90;;;10.50;99.90;;;;;;4980125;28;20215;-86
2022/04/08 06:00:17;;;;;;;11.50;4.70;;;10.90;99.90;;;;;;4983965;28;20214;-85
2022/04/08 06:02:45;;;;;;;10.07;4.57;;;11.40;99.90;;;;;;4993812;28;20218;-85
2022/04/08 06:05:15;;;;;;;11.53;4.67;;;11.50;99.90;;;;;;4992645;28;20369;-85
2022/04/08 06:07:46;;;;;;;11.90;5.03;;;11.50;99.90;;;;;;5010173;28;20554;-85
2022/04/08 06:10:14;;;;;;;10.63;5.23;;;11.20;99.90;;;;;;4974816;28;20261;-84
2022/04/08 06:12:41;;;;;;;12.83;5.40;;;10.80;99.90;;;;;;4975698;28;20222;-85
2022/04/08 06:15:09;;;;;;;10.80;5.60;;;10.60;99.90;;;;;;4974639;28;20738;-85
2022/04/08 06:17:37;;;;;;;14.67;5.63;;;11.00;99.90;;;;;;4973129;28;20227;-85
2022/04/08 06:20:06;;;;;;;11.50;5.73;;;10.30;99.90;;;;;;4977121;28;20207;-85
2022/04/08 06:22:33;;;;;;;14.87;6.10;;;10.10;99.90;;;;;;4983083;28;20210;-85
2022/04/08 06:25:00;;;;;;;14.73;6.93;;;10.20;99.90;;;;;;4995280;28;20219;-85
2022/04/08 06:27:27;;;;;;;12.13;5.93;;;9.90;99.90;;;;;;4994470;28;20199;-85
2022/04/08 06:29:54;;;;;;;10.60;6.13;;;10.50;99.90;;;;;;4986580;28;20195;-85
2022/04/08 06:32:22;;;;;;;10.37;5.43;;;11.30;99.90;;;;;;4995542;28;20372;-85
2022/04/08 06:34:49;;;;;;;14.03;5.67;;;11.80;99.90;;;;;;5014832;28;20318;-85
2022/04/08 06:37:18;;;;;;;14.40;5.67;;;12.10;99.90;;;;;;4998220;28;20385;-85
2022/04/08 06:39:47;;;;;;;14.37;6.27;;;12.40;99.90;;;;;;4996943;28;20237;-86
2022/04/08 06:42:14;;;;;;;11.40;6.20;;;12.60;99.90;;;;;;4993940;28;20210;-85
2022/04/08 06:44:42;;;;;;;15.43;6.80;;;12.40;99.90;;;;;;4991432;28;20452;-85
2022/04/08 06:47:09;;;;;;;15.53;6.73;;;12.00;99.90;;;;;;4995204;28;20206;-85
2022/04/08 06:49:36;;;;;;;12.20;5.97;;;11.80;99.90;;;;;;4993772;28;20222;-85
2022/04/08 06:52:03;;;;;;;9.87;6.10;;;12.10;99.90;;;;;;4976862;28;20233;-86
2022/04/08 06:54:32;;;;;;;11.97;5.93;;;11.60;99.90;;;;;;4986328;28;20247;-84
2022/04/08 06:56:59;;;;;;;11.20;6.30;;;12.10;99.90;;;;;;5009808;28;20926;-85
2022/04/08 06:59:28;;;;;;;10.33;5.70;;;12.10;99.90;;;;;;4985482;28;20261;-85
2022/04/08 07:01:55;;;;;;;12.67;6.57;;;12.00;99.90;;;;;;4972613;28;20208;-86
2022/04/08 07:04:25;;;;;;;13.33;6.60;;;13.40;99.90;;;;;;4978315;28;20236;-86
2022/04/08 07:06:52;;;;;;;9.80;6.23;;;12.40;99.90;;;;;;4997319;28;20215;-86
2022/04/08 07:09:20;;;;;;;9.70;6.00;;;11.20;99.90;;;;;;5002120;28;20585;-86
2022/04/08 07:11:48;;;;;;;11.67;7.00;;;11.80;99.90;;;;;;5013600;28;20203;-87
2022/04/08 07:14:15;;;;;;;11.60;6.80;;;11.70;99.90;;;;;;4991306;28;20230;-87
2022/04/08 07:16:43;;;;;;;14.27;7.10;;;11.40;99.90;;;;;;4996988;28;20240;-85
2022/04/08 07:19:11;;;;;;;13.20;6.87;;;11.30;99.90;;;;;;4995774;28;20207;-86
2022/04/08 07:21:39;;;;;;;15.47;7.23;;;11.00;99.90;;;;;;4975042;28;20334;-87
2022/04/08 07:24:07;;;;;;;11.70;6.37;;;11.10;99.90;;;;;;4976400;28;20264;-86
2022/04/08 07:26:34;;;;;;;10.87;7.23;;;11.00;99.90;;;;;;4991646;28;20179;-87
2022/04/08 07:29:02;;;;;;;13.23;7.20;;;12.10;99.90;;;;;;4974254;28;20207;-87
2022/04/08 07:31:29;;;;;;;13.13;6.97;;;10.90;99.90;;;;;;4995447;28;20658;-86
2022/04/08 07:33:56;;;;;;;13.40;6.47;;;10.80;99.90;;;;;;5013370;28;20194;-86
2022/04/08 07:36:23;;;;;;;13.93;6.87;;;10.80;99.90;;;;;;4984799;28;20234;-86
2022/04/08 07:38:50;;;;;;;11.70;7.10;;;10.80;99.90;;;;;;5010648;28;20213;-86
2022/04/08 07:41:20;;;;;;;9.67;6.30;;;10.70;99.90;;;;;;4992390;28;20215;-85
2022/04/08 07:43:47;;;;;;;14.93;6.87;;;10.50;99.90;;;;;;4989367;28;20222;-87
2022/04/08 07:46:15;;;;;;;11.10;6.70;;;10.90;99.90;;;;;;4975800;28;20268;-87
2022/04/08 07:48:42;;;;;;;10.20;5.67;;;11.10;99.90;;;;;;4978334;28;20211;-87
2022/04/08 07:51:09;;;;;;;11.03;6.30;;;11.30;99.90;;;;;;4985492;28;20257;-87
2022/04/08 07:53:36;;;;;;;12.03;5.67;;;11.30;99.90;;;;;;4997279;28;20390;-87
2022/04/08 07:56:03;;;;;;;11.30;5.80;;;11.60;99.90;;;;;;4990729;28;20369;-87
2022/04/08 07:58:30;;;;;;;10.53;5.80;;;11.50;99.90;;;;;;4977919;28;20811;-86
2022/04/08 08:00:58;;;;;;;10.27;5.30;;;12.20;99.90;;;;;;5007092;28;20214;-86
2022/04/08 08:03:26;;;;;;;8.87;5.27;;;11.50;99.90;;;;;;5006457;28;20223;-84
2022/04/08 08:05:53;;;;;;;11.53;5.33;;;11.70;99.90;;;;;;4977294;28;20277;-85
2022/04/08 08:08:20;;;;;;;9.60;4.33;;;11.80;99.90;;;;;;4997721;28;20275;-85
2022/04/08 08:10:49;;;;;;;12.53;4.60;;;11.80;99.90;;;;;;4994405;28;20203;-84
2022/04/08 08:13:16;;;;;;;6.47;3.60;;;11.90;99.90;;;;;;4976517;28;20234;-85
2022/04/08 08:15:44;;;;;;;9.30;4.53;;;11.50;99.90;;;;;;4994997;28;20223;-85
2022/04/08 08:18:11;;;;;;;7.30;3.77;;;11.50;99.90;;;;;;4975987;28;20692;-85
2022/04/08 08:20:40;;;;;;;4.70;3.20;;;11.80;99.90;;;;;;4979465;28;20211;-86
2022/04/08 08:23:08;;;;;;;9.77;4.53;;;11.90;99.90;;;;;;4997263;28;20195;-85
2022/04/08 08:25:35;;;;;;;8.17;3.57;;;11.50;99.90;;;;;;4982695;28;20233;-86
2022/04/08 08:28:02;;;;;;;7.83;3.53;;;11.60;99.90;;;;;;4976390;28;20218;-86
2022/04/08 08:30:31;;;;;;;8.30;4.27;;;11.60;99.90;;;;;;4997781;28;20248;-85
2022/04/08 08:32:59;;;;;;;11.60;4.33;;;11.60;99.90;;;;;;4988780;28;20207;-85
2022/04/08 08:35:27;;;;;;;7.57;3.43;;;11.10;99.90;;;;;;4996375;28;20223;-85
2022/04/08 08:37:55;;;;;;;5.73;3.20;;;11.70;99.90;;;;;;4993379;28;20225;-86
2022/04/08 08:40:23;;;;;;;6.73;3.40;;;12.00;99.90;;;;;;4997170;28;20195;-86
2022/04/08 08:42:50;;;;;;;6.90;3.47;;;11.70;99.90;;;;;;4988380;28;20215;-87
2022/04/08 08:45:18;;;;;;;9.57;2.90;;;11.80;99.90;;;;;;4997901;28;20232;-88
2022/04/08 08:47:49;;;;;;;5.43;3.37;;;11.90;99.90;;;;;;4992449;28;20286;-87
2022/04/08 08:50:17;;;;;;;7.40;3.17;;;12.20;99.90;;;;;;4976837;28;20207;-87
2022/04/08 08:52:50;;;;;;;5.50;3.10;;;12.20;99.90;;;;;;4975823;28;20195;-86
2022/04/08 08:55:19;;;;;;;9.27;3.27;;;11.90;99.90;;;;;;4975023;28;20235;-87
2022/04/08 08:57:47;;;;;;;12.17;3.90;;;12.60;99.90;;;;;;4973162;28;20269;-88
2022/04/08 09:00:22;;;;;;;7.67;3.63;;;12.70;99.90;;;;;;4992400;28;20589;-87
2022/04/08 09:03:06;;;;;;;8.20;3.30;;;12.30;99.90;;;;;;4988288;28;20718;-87
2022/04/08 09:05:41;;;;;;;12.13;3.97;;;12.30;99.90;;;;;;4971402;28;20238;-86
2022/04/08 09:08:09;;;;;;;7.77;3.87;;;12.50;99.90;;;;;;4976645;28;20325;-86
2022/04/08 09:10:39;;;;;;;9.73;4.10;;;13.10;99.90;;;;;;4969312;28;20211;-86
2022/04/08 09:13:08;;;;;;;10.90;3.73;;;12.60;99.90;;;;;;4972949;28;21018;-85
2022/04/08 09:15:38;;;;;;;6.80;3.30;;;12.90;99.90;;;;;;4973474;28;20230;-86
2022/04/08 09:18:13;;;;;;;11.33;3.90;;;12.90;99.90;;;;;;4975286;28;20270;-86
2022/04/08 09:20:42;;;;;;;8.70;3.60;;;13.30;99.90;;;;;;4974859;28;20229;-85
2022/04/08 09:23:10;;;;;;;6.97;3.33;;;12.90;99.90;;;;;;4965412;28;20217;-86
2022/04/08 09:25:39;;;;;;;13.30;4.13;;;12.80;99.90;;;;;;4973043;28;20325;-86
2022/04/08 09:28:06;;;;;;;7.67;3.10;;;13.10;99.90;;;;;;4962958;28;20510;-85
2022/04/08 09:30:33;;;;;;;8.13;3.40;;;13.00;99.90;;;;;;4988884;28;20199;-85
2022/04/08 09:33:21;;;;;;;10.10;2.90;;;13.30;99.90;;;;;;5008907;28;20217;-86
2022/04/08 09:35:49;;;;;;;10.83;3.60;;;13.30;99.90;;;;;;4991487;28;20209;-85
2022/04/08 09:38:25;;;;;;;7.17;3.33;;;13.40;99.90;;;;;;4996814;28;20208;-84
2022/04/08 09:41:00;;;;;;;6.87;3.13;;;13.50;99.90;;;;;;4993746;28;20273;-85
2022/04/08 09:43:32;;;;;;;7.27;3.30;;;13.60;99.90;;;;;;4988029;28;20192;-85
2022/04/08 09:46:13;;;;;;;7.23;3.50;;;13.60;99.90;;;;;;4993492;28;20240;-80
2022/04/08 09:48:41;;;;;;;7.27;3.23;;;13.90;99.90;;;;;;4983156;28;20219;-83
2022/04/08 09:51:09;;;;;;;8.77;3.37;;;14.00;99.90;;;;;;4994233;28;20201;-84
2022/04/08 09:53:37;;;;;;;11.00;4.23;;;13.70;99.90;;;;;;5011830;28;20208;-83
2022/04/08 09:56:10;;;;;;;10.70;3.90;;;13.70;99.90;;;;;;5016937;28;20239;-84
2022/04/08 09:58:38;;;;;;;7.30;3.50;;;13.70;99.90;;;;;;5015364;28;20227;-83
2022/04/08 10:01:06;;;;;;;10.13;4.03;;;13.70;99.90;;;;;;5014945;28;20266;-83
2022/04/08 10:03:34;;;;;;;9.30;3.50;;;13.80;99.90;;;;;;4992444;28;20231;-84
2022/04/08 10:06:01;;;;;;;6.33;3.33;;;13.80;99.90;;;;;;5015109;28;20228;-83
2022/04/08 10:08:30;;;;;;;8.07;3.73;;;13.40;99.90;;;;;;4998021;28;20216;-84
2022/04/08 10:11:06;;;;;;;9.13;3.43;;;13.60;99.90;;;;;;4995768;28;20215;-84
2022/04/08 10:13:52;;;;;;;8.83;3.53;;;13.60;99.90;;;;;;5000528;28;20280;-82
2022/04/08 10:16:20;;;;;;;7.27;3.40;;;13.60;99.90;;;;;;4994654;28;20337;-84
2022/04/08 10:18:50;;;;;;;10.63;3.57;;;13.60;99.90;;;;;;4975535;28;20835;-83
2022/04/08 10:21:17;;;;;;;9.10;3.70;;;13.60;99.90;;;;;;4994023;28;20200;-84
2022/04/08 10:23:49;;;;;;;7.63;3.33;;;13.60;99.90;;;;;;4992209;28;20216;-85
2022/04/08 10:26:20;;;;;;;13.13;4.70;;;13.70;99.90;;;;;;4991796;28;20227;-85
2022/04/08 10:28:49;;;;;;;11.17;3.60;;;13.60;99.90;;;;;;4990809;28;20208;-84
2022/04/08 10:31:20;;;;;;;8.47;3.50;;;13.80;99.90;;;;;;4983619;28;20226;-83
2022/04/08 10:33:49;;;;;;;10.00;4.17;;;13.80;99.90;;;;;;5008730;28;20204;-84
2022/04/08 10:36:16;;;;;;;8.50;4.07;;;13.70;99.90;;;;;;4966415;28;20220;-84
2022/04/08 10:38:43;;;;;;;5.93;3.83;;;13.70;99.90;;;;;;4992219;28;20214;-83
2022/04/08 10:41:11;;;;;;;8.40;3.83;;;13.60;99.90;;;;;;4996762;28;20220;-84
2022/04/08 10:43:53;;;;;;;5.87;3.43;;;12.90;99.90;;;;;;4974837;28;20298;-84
2022/04/08 10:46:31;;;;;;;8.80;4.03;;;13.30;99.90;;;;;;4991695;28;20204;-83
2022/04/08 10:49:01;;;;;;;10.03;3.73;;;13.30;99.90;;;;;;4982800;28;20312;-84
2022/04/08 10:51:30;;;;;;;8.13;4.50;;;13.30;99.90;;;;;;4967163;28;20205;-83
2022/04/08 10:54:04;;;;;;;10.93;4.40;;;13.30;99.90;;;;;;4974195;28;20215;-84
2022/04/08 10:56:34;;;;;;;8.30;4.17;;;13.50;99.90;;;;;;4976144;28;20231;-84
2022/04/08 10:59:03;;;;;;;9.20;3.73;;;13.40;99.90;;;;;;4994113;28;20219;-84
2022/04/08 11:01:34;;;;;;;8.33;3.90;;;13.00;99.90;;;;;;5004499;28;20196;-83
2022/04/08 11:04:03;;;;;;;9.57;4.20;;;13.00;99.90;;;;;;5006262;28;20236;-84
2022/04/08 11:06:32;;;;;;;9.40;4.00;;;13.10;99.90;;;;;;4973845;28;20212;-84
2022/04/08 11:09:05;;;;;;;9.10;3.80;;;13.20;99.90;;;;;;4989088;28;20290;-84
2022/04/08 11:11:33;;;;;;;7.67;3.60;;;13.30;99.90;;;;;;5007381;28;20271;-85
2022/04/08 11:14:03;;;;;;;7.13;3.37;;;13.10;99.90;;;;;;4977019;28;20611;-84
2022/04/08 11:16:33;;;;;;;7.63;3.70;;;13.40;99.90;;;;;;4989897;28;20218;-85
2022/04/08 11:19:00;;;;;;;8.63;3.50;;;13.50;99.90;;;;;;4983861;28;20214;-84
2022/04/08 11:21:29;;;;;;;8.13;3.30;;;13.30;99.90;;;;;;4991802;28;20723;-84
2022/04/08 11:24:01;;;;;;;9.00;3.57;;;13.50;99.90;;;;;;4975793;28;20315;-84
2022/04/08 11:26:30;;;;;;;7.53;3.43;;;13.40;99.90;;;;;;4994708;28;20358;-84
2022/04/08 11:28:57;;;;;;;7.20;3.40;;;13.50;99.90;;;;;;4977757;28;20232;-85
2022/04/08 11:31:25;;;;;;;5.10;2.87;;;13.60;99.90;;;;;;4992367;28;20298;-86
2022/04/08 11:33:52;;;;;;;9.97;3.30;;;13.60;99.90;;;;;;4974141;28;20292;-85
2022/04/08 11:36:24;;;;;;;10.73;3.83;;;13.60;99.90;;;;;;4994255;28;20638;-85
2022/04/08 11:38:51;;;;;;;8.97;3.40;;;13.70;99.90;;;;;;4997525;28;20218;-85
2022/04/08 11:41:21;;;;;;;6.90;3.17;;;13.70;99.90;;;;;;4976801;28;20768;-85
2022/04/08 11:43:49;;;;;;;8.53;3.37;;;13.80;99.90;;;;;;4992164;28;20207;-85
2022/04/08 11:46:17;;;;;;;8.30;3.90;;;13.90;99.90;;;;;;4998940;28;20204;-85
2022/04/08 11:48:45;;;;;;;6.90;3.40;;;13.80;99.90;;;;;;5007124;28;20207;-85
2022/04/08 11:51:12;;;;;;;7.37;3.40;;;13.60;99.90;;;;;;4987622;28;20710;-85
2022/04/08 11:53:44;;;;;;;10.17;3.63;;;13.50;99.90;;;;;;4993063;28;21044;-85
2022/04/08 11:56:12;;;;;;;9.23;3.47;;;13.60;99.90;;;;;;4993163;28;20326;-86
2022/04/08 11:58:39;;;;;;;8.70;3.57;;;13.90;99.90;;;;;;4979709;28;20321;-86
2022/04/08 12:01:09;;;;;;;6.23;2.80;;;13.60;99.90;;;;;;5014289;28;20536;-85
2022/04/08 12:03:37;;;;;;;7.87;3.30;;;13.70;99.90;;;;;;4985021;28;20544;-85
2022/04/08 12:06:06;;;;;;;8.13;3.20;;;13.70;99.90;;;;;;5007766;28;20307;-85
2022/04/08 12:08:34;;;;;;;5.47;2.73;;;13.70;99.90;;;;;;4981133;28;20366;-86
2022/04/08 12:11:07;;;;;;;4.70;2.77;;;13.70;99.90;;;;;;4976496;28;20791;-85
2022/04/08 12:13:36;;;;;;;5.07;2.70;;;13.80;99.90;;;;;;4993856;28;20205;-87
2022/04/08 12:16:08;;;;;;;4.77;2.70;;;13.80;99.90;;;;;;4967227;28;20379;-86
2022/04/08 12:18:35;;;;;;;5.17;2.37;;;13.60;99.90;;;;;;5013084;28;20256;-86
2022/04/08 12:21:07;;;;;;;8.43;3.50;;;13.60;99.90;;;;;;5010271;28;20199;-86
2022/04/08 12:23:34;;;;;;;4.20;2.60;;;13.60;99.90;;;;;;4989468;28;20191;-84
2022/04/08 12:26:04;;;;;;;6.17;2.80;;;13.30;99.90;;;;;;4996664;28;20223;-84
2022/04/08 12:28:35;;;;;;;6.70;2.97;;;13.30;99.90;;;;;;4996347;28;20232;-83
2022/04/08 12:31:11;;;;;;;6.10;3.00;;;13.20;99.90;;;;;;4996288;28;20212;-85
2022/04/08 12:33:38;;;;;;;4.73;3.00;;;13.20;99.90;;;;;;4986945;28;20208;-84
2022/04/08 12:36:10;;;;;;;7.93;3.63;;;13.20;99.90;;;;;;4993700;28;20732;-83
2022/04/08 12:38:39;;;;;;;7.83;3.50;;;13.10;99.90;;;;;;4994888;28;20273;-83
2022/04/08 12:41:07;;;;;;;7.03;3.13;;;13.10;99.90;;;;;;4994033;28;20745;-84
2022/04/08 12:43:34;;;;;;;6.37;3.33;;;13.10;99.90;;;;;;4997729;28;20207;-85
2022/04/08 12:46:01;;;;;;;5.43;3.07;;;13.00;99.90;;;;;;5009930;28;20279;-84
2022/04/08 12:48:28;;;;;;;4.70;2.70;;;13.10;99.90;;;;;;4998113;28;20199;-83
2022/04/08 12:50:57;;;;;;;7.47;3.37;;;13.20;99.90;;;;;;4995101;28;20192;-84